createdAt,value
2023-04-12T00:00:29.606Z,1.60
2023-04-12T00:01:29.593Z,2.20
2023-04-12T00:02:29.699Z,1.90
2023-04-12T00:03:29.642Z,1.70
2023-04-12T00:04:29.725Z,2.10
2023-04-12T00:05:29.518Z,1.70
2023-04-12T00:06:29.490Z,1.70
2023-04-12T00:07:29.492Z,2.00
2023-04-12T00:08:29.479Z,2.70
2023-04-12T00:09:29.479Z,1.60
2023-04-12T00:10:29.441Z,2.10
2023-04-12T00:11:29.454Z,1.80
2023-04-12T00:12:29.427Z,1.80
2023-04-12T00:13:29.457Z,2.00
2023-04-12T00:14:29.422Z,1.50
2023-04-12T00:15:29.430Z,2.00
2023-04-12T00:16:29.509Z,2.00
2023-04-12T00:17:29.413Z,1.70
2023-04-12T00:18:29.388Z,1.90
2023-04-12T00:19:29.389Z,1.80
2023-04-12T00:20:29.394Z,1.80
2023-04-12T00:21:29.334Z,1.90
2023-04-12T00:22:29.323Z,2.30
2023-04-12T00:23:29.322Z,1.80
2023-04-12T00:24:29.283Z,2.00
2023-04-12T00:25:29.284Z,1.90
2023-04-12T00:26:29.349Z,1.60
2023-04-12T00:27:29.281Z,1.80
2023-04-12T00:28:29.277Z,1.60
2023-04-12T00:29:29.247Z,1.70
2023-04-12T00:30:29.283Z,1.50
2023-04-12T00:31:29.265Z,1.60
2023-04-12T00:32:29.262Z,1.90
2023-04-12T00:33:29.192Z,1.50
2023-04-12T00:34:29.194Z,1.60
2023-04-12T00:35:29.220Z,1.80
2023-04-12T00:36:29.156Z,1.70
2023-04-12T00:37:29.154Z,1.80
2023-04-12T00:38:29.151Z,2.00
2023-04-12T00:39:29.136Z,2.00
2023-04-12T00:40:29.146Z,1.60
2023-04-12T00:41:29.129Z,1.60
2023-04-12T00:42:29.102Z,1.60
2023-04-12T00:43:29.090Z,1.80
2023-04-12T00:44:29.087Z,1.70
2023-04-12T00:45:29.135Z,1.60
2023-04-12T00:46:29.102Z,1.80
2023-04-12T00:47:29.057Z,1.80
2023-04-12T00:48:29.032Z,1.60
2023-04-12T00:49:29.042Z,1.80
2023-04-12T00:50:29.032Z,1.40
2023-04-12T00:51:29.004Z,1.40
2023-04-12T00:52:28.982Z,1.60
2023-04-12T00:53:28.980Z,1.30
2023-04-12T00:54:29.044Z,1.60
2023-04-12T00:55:28.976Z,1.90
2023-04-12T00:56:28.969Z,1.70
2023-04-12T00:57:28.934Z,1.70
2023-04-12T00:58:28.968Z,1.70
2023-04-12T00:59:29.028Z,1.60
2023-04-12T01:00:28.920Z,1.40
2023-04-12T01:01:28.909Z,1.50
2023-04-12T01:02:29.093Z,1.50
2023-04-12T01:03:29.002Z,1.70
2023-04-12T01:04:28.888Z,1.70
2023-04-12T01:05:28.850Z,1.40
2023-04-12T01:06:28.827Z,1.70
2023-04-12T01:07:28.825Z,1.40
2023-04-12T01:08:28.805Z,1.40
2023-04-12T01:09:28.805Z,1.50
2023-04-12T01:10:28.794Z,2.10
2023-04-12T01:11:28.786Z,1.60
2023-04-12T01:12:28.763Z,1.50
2023-04-12T01:13:28.753Z,1.80
2023-04-12T01:14:28.794Z,1.40
2023-04-12T01:15:28.738Z,1.80
2023-04-12T01:16:28.751Z,1.70
2023-04-12T01:17:28.755Z,1.70
2023-04-12T01:18:28.848Z,1.50
2023-04-12T01:19:28.702Z,1.30
2023-04-12T01:20:28.683Z,1.40
2023-04-12T01:21:28.667Z,1.40
2023-04-12T01:22:28.656Z,1.10
2023-04-12T01:23:28.648Z,1.30
2023-04-12T01:24:28.641Z,1.80
2023-04-12T01:25:28.634Z,1.40
2023-04-12T01:26:28.676Z,1.10
2023-04-12T01:27:28.610Z,1.50
2023-04-12T01:28:28.620Z,1.70
2023-04-12T01:29:28.629Z,1.40
2023-04-12T01:30:28.583Z,1.50
2023-04-12T01:31:28.586Z,1.30
2023-04-12T01:32:28.554Z,1.60
2023-04-12T01:33:28.546Z,1.40
2023-04-12T01:34:28.700Z,1.40
2023-04-12T01:35:28.553Z,1.30
2023-04-12T01:36:28.588Z,1.20
2023-04-12T01:37:28.486Z,1.20
2023-04-12T01:38:28.522Z,1.40
2023-04-12T01:39:28.476Z,1.40
2023-04-12T01:40:28.464Z,1.30
2023-04-12T01:41:28.444Z,1.40
2023-04-12T01:42:28.444Z,1.30
2023-04-12T01:43:28.424Z,1.20
2023-04-12T01:44:28.446Z,1.50
2023-04-12T01:45:28.448Z,1.60
2023-04-12T01:46:28.416Z,1.50
2023-04-12T01:47:28.514Z,1.40
2023-04-12T01:48:28.379Z,1.30
2023-04-12T01:49:28.419Z,1.20
2023-04-12T01:50:28.348Z,1.10
2023-04-12T01:51:28.340Z,2.10
2023-04-12T01:52:28.349Z,1.50
2023-04-12T01:53:28.321Z,1.40
2023-04-12T01:54:28.342Z,1.30
2023-04-12T01:55:28.314Z,1.40
2023-04-12T01:56:28.289Z,1.40
2023-04-12T01:57:28.265Z,1.40
2023-04-12T01:58:28.270Z,1.20
2023-04-12T01:59:28.271Z,1.70
2023-04-12T02:00:28.261Z,1.20
2023-04-12T02:01:28.236Z,1.50
2023-04-12T02:02:28.286Z,1.40
2023-04-12T02:03:28.249Z,1.50
2023-04-12T02:04:28.210Z,1.30
2023-04-12T02:05:28.239Z,1.10
2023-04-12T02:06:28.188Z,1.30
2023-04-12T02:07:28.165Z,1.20
2023-04-12T02:08:28.155Z,1.30
2023-04-12T02:09:28.165Z,1.30
2023-04-12T02:10:28.133Z,1.40
2023-04-12T02:11:28.122Z,1.30
2023-04-12T02:12:28.124Z,1.40
2023-04-12T02:13:28.095Z,1.50
2023-04-12T02:14:28.095Z,1.50
2023-04-12T02:15:28.080Z,1.30
2023-04-12T02:16:28.082Z,1.50
2023-04-12T02:17:28.084Z,1.70
2023-04-12T02:18:28.055Z,1.40
2023-04-12T02:19:28.044Z,1.60
2023-04-12T02:20:28.014Z,1.70
2023-04-12T02:21:28.098Z,1.70
2023-04-12T02:22:28.005Z,2.00
2023-04-12T02:23:28.046Z,1.70
2023-04-12T02:24:27.976Z,1.80
2023-04-12T02:25:27.961Z,2.10
2023-04-12T02:26:27.970Z,1.50
2023-04-12T02:27:27.946Z,1.50
2023-04-12T02:28:27.932Z,2.00
2023-04-12T02:29:27.993Z,1.50
2023-04-12T02:30:27.944Z,1.70
2023-04-12T02:31:27.921Z,1.50
2023-04-12T02:32:27.912Z,1.50
2023-04-12T02:33:27.878Z,1.40
2023-04-12T02:34:27.887Z,1.90
2023-04-12T02:35:27.865Z,1.50
2023-04-12T02:36:27.834Z,1.60
2023-04-12T02:37:27.838Z,1.60
2023-04-12T02:38:27.819Z,1.80
2023-04-12T02:39:27.827Z,1.60
2023-04-12T02:40:27.883Z,1.60
2023-04-12T02:41:27.791Z,1.30
2023-04-12T02:42:27.807Z,1.80
2023-04-12T02:43:27.763Z,1.70
2023-04-12T02:44:27.757Z,1.50
2023-04-12T02:45:27.738Z,1.60
2023-04-12T02:46:27.808Z,1.50
2023-04-12T02:47:27.747Z,1.70
2023-04-12T02:48:27.733Z,1.80
2023-04-12T02:49:27.700Z,1.60
2023-04-12T02:50:27.686Z,1.70
2023-04-12T02:51:27.703Z,2.00
2023-04-12T02:52:27.677Z,1.80
2023-04-12T02:53:27.658Z,1.90
2023-04-12T02:54:27.651Z,2.00
2023-04-12T02:55:27.633Z,2.10
2023-04-12T02:56:27.626Z,1.70
2023-04-12T02:57:27.634Z,1.60
2023-04-12T02:58:27.642Z,1.80
2023-04-12T02:59:27.606Z,1.90
2023-04-12T03:00:27.628Z,1.70
2023-04-12T03:01:27.609Z,1.80
2023-04-12T03:02:27.652Z,1.70
2023-04-12T03:03:27.822Z,1.80
2023-04-12T03:04:27.663Z,1.90
2023-04-12T03:05:27.537Z,1.90
2023-04-12T03:06:27.505Z,2.00
2023-04-12T03:07:27.534Z,1.90
2023-04-12T03:08:27.528Z,1.70
2023-04-12T03:09:27.489Z,1.60
2023-04-12T03:10:27.522Z,2.00
2023-04-12T03:11:27.463Z,1.70
2023-04-12T03:12:27.512Z,1.70
2023-04-12T03:13:27.440Z,1.70
2023-04-12T03:14:27.527Z,1.70
2023-04-12T03:15:27.499Z,1.60
2023-04-12T03:16:27.398Z,1.90
2023-04-12T03:17:27.444Z,1.60
2023-04-12T03:18:27.404Z,1.90
2023-04-12T03:19:27.462Z,1.70
2023-04-12T03:20:27.352Z,1.80
2023-04-12T03:21:27.352Z,2.00
2023-04-12T03:22:27.347Z,1.70
2023-04-12T03:23:27.323Z,1.90
2023-04-12T03:24:27.348Z,2.50
2023-04-12T03:25:27.321Z,1.80
2023-04-12T03:26:27.285Z,1.80
2023-04-12T03:27:27.289Z,1.60
2023-04-12T03:28:27.270Z,2.70
2023-04-12T03:29:27.282Z,2.00
2023-04-12T03:30:27.240Z,2.00
2023-04-12T03:31:27.356Z,1.90
2023-04-12T03:32:27.309Z,2.00
2023-04-12T03:33:27.218Z,1.70
2023-04-12T03:34:27.227Z,2.00
2023-04-12T03:35:27.311Z,2.20
2023-04-12T03:36:27.192Z,1.80
2023-04-12T03:37:27.234Z,2.10
2023-04-12T03:38:27.156Z,2.20
2023-04-12T03:39:27.157Z,2.00
2023-04-12T03:40:27.156Z,2.10
2023-04-12T03:41:27.128Z,1.90
2023-04-12T03:42:32.899Z,1.90
2023-04-12T03:43:28.106Z,2.50
2023-04-12T03:44:27.145Z,1.90
2023-04-12T03:45:27.092Z,2.50
2023-04-12T03:46:27.095Z,1.90
2023-04-12T03:47:27.152Z,2.00
2023-04-12T03:48:27.061Z,2.10
2023-04-12T03:49:27.059Z,2.50
2023-04-12T03:50:27.023Z,2.30
2023-04-12T03:51:27.122Z,2.10
2023-04-12T03:52:27.011Z,2.00
2023-04-12T03:53:27.007Z,2.50
2023-04-12T03:54:26.999Z,2.10
2023-04-12T03:55:26.980Z,2.20
2023-04-12T03:56:26.966Z,2.30
2023-04-12T03:57:27.053Z,2.10
2023-04-12T03:58:26.941Z,2.40
2023-04-12T03:59:26.945Z,2.50
2023-04-12T04:00:26.918Z,2.20
2023-04-12T04:01:26.942Z,2.20
2023-04-12T04:02:26.995Z,2.30
2023-04-12T04:03:27.222Z,2.40
2023-04-12T04:04:27.094Z,2.30
2023-04-12T04:05:26.869Z,2.30
2023-04-12T04:06:26.862Z,2.20
2023-04-12T04:07:26.846Z,2.50
2023-04-12T04:08:26.856Z,2.30
2023-04-12T04:09:26.931Z,2.50
2023-04-12T04:10:26.818Z,2.10
2023-04-12T04:11:26.868Z,2.70
2023-04-12T04:12:26.813Z,2.30
2023-04-12T04:13:26.809Z,2.70
2023-04-12T04:14:26.793Z,2.80
2023-04-12T04:15:26.743Z,2.80
2023-04-12T04:16:26.815Z,2.50
2023-04-12T04:17:26.868Z,2.20
2023-04-12T04:18:26.756Z,2.30
2023-04-12T04:19:26.746Z,2.30
2023-04-12T04:20:27.879Z,2.20
2023-04-12T04:21:26.696Z,2.00
2023-04-12T04:22:26.701Z,2.00
2023-04-12T04:23:26.689Z,2.30
2023-04-12T04:24:26.658Z,2.50
2023-04-12T04:25:26.658Z,2.40
2023-04-12T04:26:26.638Z,2.40
2023-04-12T04:27:26.619Z,2.20
2023-04-12T04:28:26.634Z,2.20
2023-04-12T04:29:26.605Z,2.10
2023-04-12T04:30:26.607Z,2.00
2023-04-12T04:31:26.596Z,1.90
2023-04-12T04:32:26.615Z,2.50
2023-04-12T04:33:26.571Z,2.20
2023-04-12T04:34:26.561Z,1.90
2023-04-12T04:35:26.621Z,2.10
2023-04-12T04:36:26.554Z,2.20
2023-04-12T04:37:26.519Z,2.10
2023-04-12T04:38:26.543Z,2.10
2023-04-12T04:39:26.496Z,1.70
2023-04-12T04:40:26.520Z,1.90
2023-04-12T04:41:26.489Z,2.50
2023-04-12T04:42:26.483Z,2.00
2023-04-12T04:43:26.789Z,2.00
2023-04-12T04:44:26.457Z,2.20
2023-04-12T04:45:26.641Z,1.80
2023-04-12T04:46:26.428Z,2.20
2023-04-12T04:47:26.440Z,2.00
2023-04-12T04:48:26.465Z,2.10
2023-04-12T04:49:26.389Z,2.20
2023-04-12T04:50:26.374Z,1.90
2023-04-12T04:51:26.417Z,2.30
2023-04-12T04:52:26.402Z,2.30
2023-04-12T04:53:26.390Z,2.50
2023-04-12T04:54:26.365Z,2.00
2023-04-12T04:55:26.337Z,2.60
2023-04-12T04:56:26.366Z,2.30
2023-04-12T04:57:26.295Z,2.30
2023-04-12T04:58:26.304Z,2.50
2023-04-12T04:59:26.276Z,2.10
2023-04-12T05:00:26.286Z,2.30
2023-04-12T05:01:26.357Z,2.60
2023-04-12T05:02:26.360Z,2.30
2023-04-12T05:03:28.821Z,2.20
2023-04-12T05:04:26.316Z,2.70
2023-04-12T05:05:26.293Z,2.50
2023-04-12T05:06:26.393Z,2.40
2023-04-12T05:07:30.233Z,2.40
2023-04-12T05:08:26.687Z,2.10
2023-04-12T05:09:27.195Z,2.50
2023-04-12T05:10:26.175Z,2.20
2023-04-12T05:11:26.171Z,2.30
2023-04-12T05:12:26.131Z,2.40
2023-04-12T05:13:26.166Z,2.20
2023-04-12T05:14:37.275Z,2.70
2023-04-12T05:15:27.100Z,2.30
2023-04-12T05:16:26.178Z,2.60
2023-04-12T05:17:26.160Z,2.20
2023-04-12T05:18:26.111Z,2.20
2023-04-12T05:19:26.058Z,2.20
2023-04-12T05:20:26.042Z,2.30
2023-04-12T05:21:26.058Z,2.70
2023-04-12T05:22:26.030Z,2.70
2023-04-12T05:23:26.271Z,2.20
2023-04-12T05:24:26.127Z,2.20
2023-04-12T05:25:26.040Z,2.40
2023-04-12T05:26:26.011Z,2.60
2023-04-12T05:27:25.965Z,2.30
2023-04-12T05:28:25.971Z,2.40
2023-04-12T05:29:25.953Z,2.20
2023-04-12T05:30:25.961Z,2.30
2023-04-12T05:31:25.982Z,2.50
2023-04-12T05:32:25.930Z,2.30
2023-04-12T05:33:25.912Z,2.30
2023-04-12T05:34:25.891Z,2.60
2023-04-12T05:35:25.939Z,2.20
2023-04-12T05:36:26.094Z,2.20
2023-04-12T05:37:26.495Z,2.10
2023-04-12T05:38:25.859Z,2.40
2023-04-12T05:39:25.911Z,2.60
2023-04-12T05:40:25.955Z,2.10
2023-04-12T05:41:25.843Z,2.80
2023-04-12T05:42:25.802Z,2.30
2023-04-12T05:43:25.829Z,2.30
2023-04-12T05:44:25.783Z,2.10
2023-04-12T05:45:25.808Z,2.20
2023-04-12T05:46:25.851Z,2.10
2023-04-12T05:47:25.815Z,2.40
2023-04-12T05:48:25.776Z,2.40
2023-04-12T05:49:25.749Z,2.30
2023-04-12T05:50:25.721Z,2.70
2023-04-12T05:51:37.844Z,2.40
2023-04-12T05:52:26.696Z,2.10
2023-04-12T05:53:25.720Z,2.20
2023-04-12T05:54:25.681Z,2.10
2023-04-12T05:55:25.699Z,2.40
2023-04-12T05:56:25.655Z,2.20
2023-04-12T05:58:36.898Z,2.40
2023-04-12T05:59:36.834Z,2.50
2023-04-12T06:00:36.792Z,2.40
2023-04-12T06:01:36.817Z,2.40
2023-04-12T06:02:36.874Z,2.30
2023-04-12T06:03:36.850Z,2.40
2023-04-12T06:04:49.483Z,2.10
2023-04-12T06:05:37.847Z,2.20
2023-04-12T06:06:36.709Z,2.10
2023-04-12T06:07:36.693Z,2.40
2023-04-12T06:08:36.749Z,2.30
2023-04-12T06:09:36.659Z,2.50
2023-04-12T06:10:36.664Z,2.40
2023-04-12T06:11:36.644Z,2.30
2023-04-12T06:12:36.656Z,2.10
2023-04-12T06:13:36.714Z,2.60
2023-04-12T06:14:36.675Z,2.40
2023-04-12T06:15:36.617Z,2.30
2023-04-12T06:16:36.659Z,2.50
2023-04-12T06:17:36.696Z,2.10
2023-04-12T06:18:36.589Z,2.20
2023-04-12T06:19:36.591Z,2.60
2023-04-12T06:20:36.576Z,2.50
2023-04-12T06:21:36.545Z,2.40
2023-04-12T06:22:36.545Z,2.20
2023-04-12T06:23:36.693Z,2.50
2023-04-12T06:24:36.594Z,2.10
2023-04-12T06:25:36.714Z,2.10
2023-04-12T06:26:39.761Z,2.10
2023-04-12T06:27:36.496Z,2.00
2023-04-12T06:28:36.538Z,2.30
2023-04-12T06:29:36.461Z,2.30
2023-04-12T06:30:36.480Z,2.20
2023-04-12T06:31:36.505Z,2.20
2023-04-12T06:32:36.529Z,2.10
2023-04-12T06:33:36.410Z,2.10
2023-04-12T06:34:36.411Z,2.30
2023-04-12T06:35:36.418Z,1.80
2023-04-12T06:36:36.380Z,2.20
2023-04-12T06:37:36.445Z,2.20
2023-04-12T06:38:37.179Z,2.20
2023-04-12T06:39:36.340Z,2.60
2023-04-12T06:40:36.352Z,2.10
2023-04-12T06:41:36.320Z,2.10
2023-04-12T06:42:36.299Z,2.40
2023-04-12T06:43:36.321Z,2.20
2023-04-12T06:44:36.282Z,2.30
2023-04-12T06:45:36.288Z,2.20
2023-04-12T06:46:36.304Z,1.90
2023-04-12T06:47:36.288Z,2.40
2023-04-12T06:48:36.256Z,2.10
2023-04-12T06:49:36.274Z,2.20
2023-04-12T06:50:36.218Z,2.10
2023-04-12T06:51:36.200Z,2.10
2023-04-12T06:52:36.262Z,2.50
2023-04-12T06:53:36.191Z,2.30
2023-04-12T06:54:36.177Z,2.40
2023-04-12T06:55:36.197Z,2.30
2023-04-12T06:56:36.210Z,2.20
2023-04-12T06:57:36.128Z,2.30
2023-04-12T06:58:36.164Z,2.40
2023-04-12T06:59:36.105Z,2.30
2023-04-12T07:00:36.120Z,2.20
2023-04-12T07:01:36.086Z,2.10
2023-04-12T07:02:36.235Z,2.10
2023-04-12T07:03:36.491Z,2.20
2023-04-12T07:04:36.215Z,2.20
2023-04-12T07:05:36.086Z,2.10
2023-04-12T07:06:36.178Z,2.10
2023-04-12T07:07:36.054Z,2.40
2023-04-12T07:08:36.102Z,2.30
2023-04-12T07:09:36.006Z,2.20
2023-04-12T07:10:36.018Z,2.30
2023-04-12T07:11:36.141Z,2.00
2023-04-12T07:12:35.970Z,1.90
2023-04-12T07:13:36.018Z,1.90
2023-04-12T07:14:35.955Z,2.00
2023-04-12T07:15:35.936Z,2.00
2023-04-12T07:16:36.077Z,2.10
2023-04-12T07:17:35.938Z,2.10
2023-04-12T07:18:35.962Z,2.10
2023-04-12T07:19:35.903Z,2.10
2023-04-12T07:20:35.881Z,1.90
2023-04-12T07:21:35.863Z,2.40
2023-04-12T07:22:35.863Z,2.00
2023-04-12T07:23:35.870Z,2.10
2023-04-12T07:24:35.867Z,2.10
2023-04-12T07:25:35.858Z,1.90
2023-04-12T07:26:35.846Z,2.00
2023-04-12T07:27:35.824Z,1.60
2023-04-12T07:28:35.819Z,1.80
2023-04-12T07:29:35.789Z,2.30
2023-04-12T07:30:35.785Z,1.90
2023-04-12T07:31:35.804Z,1.80
2023-04-12T07:32:35.859Z,1.90
2023-04-12T07:33:36.075Z,1.90
2023-04-12T07:34:35.796Z,1.90
2023-04-12T07:35:35.776Z,1.80
2023-04-12T07:36:35.714Z,2.00
2023-04-12T07:37:35.726Z,1.80
2023-04-12T07:38:35.730Z,1.80
2023-04-12T07:39:35.722Z,1.80
2023-04-12T07:40:35.668Z,1.60
2023-04-12T07:41:35.655Z,1.80
2023-04-12T07:42:35.813Z,1.80
2023-04-12T07:43:35.667Z,2.50
2023-04-12T07:44:38.500Z,1.70
2023-04-12T07:45:35.655Z,1.70
2023-04-12T07:46:35.639Z,1.70
2023-04-12T07:47:35.642Z,1.80
2023-04-12T07:48:35.588Z,1.90
2023-04-12T07:49:35.570Z,2.00
2023-04-12T07:50:35.560Z,1.80
2023-04-12T07:51:35.538Z,1.70
2023-04-12T07:52:35.596Z,2.00
2023-04-12T07:53:35.534Z,1.70
2023-04-12T07:54:35.544Z,1.60
2023-04-12T07:55:35.520Z,1.60
2023-04-12T07:56:35.515Z,2.20
2023-04-12T07:57:35.472Z,1.90
2023-04-12T07:58:35.619Z,1.90
2023-04-12T07:59:35.462Z,1.80
2023-04-12T08:00:35.474Z,1.90
2023-04-12T08:01:35.443Z,1.70
2023-04-12T08:02:35.568Z,1.90
2023-04-12T08:03:35.592Z,1.60
2023-04-12T08:04:35.465Z,1.60
2023-04-12T08:05:35.456Z,1.50
2023-04-12T08:06:35.376Z,1.50
2023-04-12T08:07:35.391Z,1.20
2023-04-12T08:08:35.368Z,1.80
2023-04-12T08:09:35.360Z,1.50
2023-04-12T08:10:35.346Z,1.40
2023-04-12T08:11:35.361Z,1.70
2023-04-12T08:12:35.317Z,1.40
2023-04-12T08:13:35.347Z,1.50
2023-04-12T08:14:35.339Z,1.20
2023-04-12T08:15:35.350Z,1.60
2023-04-12T08:16:35.268Z,1.20
2023-04-12T08:17:35.283Z,1.40
2023-04-12T08:18:35.359Z,1.50
2023-04-12T08:19:35.286Z,1.20
2023-04-12T08:20:35.301Z,1.20
2023-04-12T08:21:35.225Z,1.20
2023-04-12T08:22:35.210Z,1.20
2023-04-12T08:23:35.210Z,1.20
2023-04-12T08:24:35.197Z,1.10
2023-04-12T08:25:35.180Z,1.20
2023-04-12T08:26:35.179Z,1.40
2023-04-12T08:27:35.163Z,1.30
2023-04-12T08:28:36.823Z,1.50
2023-04-12T08:29:35.146Z,1.30
2023-04-12T08:30:35.146Z,1.40
2023-04-12T08:31:35.139Z,1.00
2023-04-12T08:32:35.153Z,1.10
2023-04-12T08:33:35.089Z,1.20
2023-04-12T08:34:35.086Z,1.00
2023-04-12T08:35:35.110Z,1.10
2023-04-12T08:36:35.051Z,1.10
2023-04-12T08:37:35.092Z,1.10
2023-04-12T08:38:44.875Z,1.00
2023-04-12T08:39:36.022Z,1.20
2023-04-12T08:40:35.076Z,0.90
2023-04-12T08:41:37.046Z,0.90
2023-04-12T08:42:35.075Z,1.10
2023-04-12T08:43:35.052Z,1.00
2023-04-12T08:44:34.999Z,1.00
2023-04-12T08:45:34.967Z,0.90
2023-04-12T08:46:35.116Z,1.20
2023-04-12T08:47:35.029Z,1.00
2023-04-12T08:48:35.130Z,1.30
2023-04-12T08:49:34.922Z,1.10
2023-04-12T08:50:34.929Z,1.20
2023-04-12T08:51:35.014Z,1.10
2023-04-12T08:52:34.935Z,1.30
2023-04-12T08:53:34.894Z,1.10
2023-04-12T08:54:34.865Z,1.00
2023-04-12T08:55:34.876Z,1.10
2023-04-12T08:56:34.876Z,1.00
2023-04-12T08:57:34.814Z,1.10
2023-04-12T08:58:35.002Z,1.00
2023-04-12T08:59:34.796Z,1.30
2023-04-12T09:00:34.805Z,1.10
2023-04-12T09:01:34.783Z,0.90
2023-04-12T09:02:35.025Z,1.00
2023-04-12T09:03:34.943Z,1.30
2023-04-12T09:04:34.898Z,1.60
2023-04-12T09:05:34.743Z,1.10
2023-04-12T09:06:34.718Z,1.20
2023-04-12T09:07:34.856Z,1.20
2023-04-12T09:08:34.713Z,1.00
2023-04-12T09:09:34.775Z,1.10
2023-04-12T09:10:34.704Z,1.20
2023-04-12T09:11:34.685Z,1.30
2023-04-12T09:12:34.654Z,1.30
2023-04-12T09:13:34.869Z,1.50
2023-04-12T09:14:34.644Z,1.40
2023-04-12T09:15:34.627Z,1.50
2023-04-12T09:16:34.634Z,1.40
2023-04-12T09:17:34.657Z,1.20
2023-04-12T09:18:34.593Z,1.00
2023-04-12T09:19:34.652Z,1.20
2023-04-12T09:20:34.584Z,1.50
2023-04-12T09:21:34.659Z,1.50
2023-04-12T09:22:34.568Z,1.40
2023-04-12T09:23:34.546Z,1.20
2023-04-12T09:24:34.515Z,1.30
2023-04-12T09:25:34.537Z,1.20
2023-04-12T09:26:34.495Z,1.20
2023-04-12T09:27:34.489Z,1.10
2023-04-12T09:28:34.526Z,1.00
2023-04-12T09:29:34.491Z,1.30
2023-04-12T09:30:34.449Z,1.10
2023-04-12T09:31:34.490Z,1.10
2023-04-12T09:32:34.476Z,1.30
2023-04-12T09:33:34.431Z,1.10
2023-04-12T09:34:34.424Z,1.10
2023-04-12T09:35:34.430Z,1.20
2023-04-12T09:36:34.386Z,1.10
2023-04-12T09:37:34.373Z,1.00
2023-04-12T09:38:34.421Z,1.00
2023-04-12T09:39:34.502Z,0.90
2023-04-12T09:40:34.353Z,1.00
2023-04-12T09:41:34.335Z,1.00
2023-04-12T09:42:34.931Z,1.00
2023-04-12T09:43:34.319Z,1.00
2023-04-12T09:44:34.379Z,1.10
2023-04-12T09:45:34.305Z,1.10
2023-04-12T09:46:34.327Z,0.90
2023-04-12T09:47:34.270Z,1.10
2023-04-12T09:48:34.290Z,1.30
2023-04-12T09:49:34.253Z,1.40
2023-04-12T09:50:34.260Z,1.40
2023-04-12T09:51:34.272Z,1.10
2023-04-12T09:52:34.218Z,1.30
2023-04-12T09:53:34.212Z,1.40
2023-04-12T09:54:34.175Z,1.20
2023-04-12T09:55:34.181Z,1.40
2023-04-12T09:56:34.240Z,1.30
2023-04-12T09:57:34.147Z,1.10
2023-04-12T09:58:34.184Z,1.50
2023-04-12T09:59:34.133Z,1.40
2023-04-12T10:00:34.354Z,1.50
2023-04-12T10:01:34.187Z,1.60
2023-04-12T10:02:34.266Z,5.30
2023-04-12T10:03:34.289Z,6.00
2023-04-12T10:04:34.279Z,5.00
2023-04-12T10:05:34.105Z,4.70
2023-04-12T10:06:34.105Z,3.60
2023-04-12T10:07:34.059Z,2.40
2023-04-12T10:08:34.034Z,1.60
2023-04-12T10:09:34.028Z,1.40
2023-04-12T10:10:34.027Z,1.20
2023-04-12T10:11:34.125Z,1.40
2023-04-12T10:12:34.002Z,1.10
2023-04-12T10:13:34.016Z,1.50
2023-04-12T10:14:33.978Z,1.40
2023-04-12T10:15:33.954Z,1.50
2023-04-12T10:16:34.059Z,1.60
2023-04-12T10:17:33.972Z,1.50
2023-04-12T10:18:33.947Z,1.50
2023-04-12T10:19:34.006Z,1.40
2023-04-12T10:20:33.904Z,1.50
2023-04-12T10:21:33.950Z,1.60
2023-04-12T10:22:33.905Z,1.40
2023-04-12T10:23:33.895Z,1.40
2023-04-12T10:24:33.851Z,1.60
2023-04-12T10:25:33.885Z,1.60
2023-04-12T10:26:33.846Z,1.80
2023-04-12T10:27:33.814Z,1.70
2023-04-12T10:28:33.832Z,1.90
2023-04-12T10:29:33.804Z,1.70
2023-04-12T10:30:33.805Z,1.80
2023-04-12T10:31:33.809Z,2.00
2023-04-12T10:32:35.423Z,1.50
2023-04-12T10:33:33.766Z,1.00
2023-04-12T10:34:33.755Z,1.40
2023-04-12T10:35:33.755Z,0.90
2023-04-12T10:36:33.749Z,0.90
2023-04-12T10:37:33.741Z,0.80
2023-04-12T10:38:35.970Z,0.80
2023-04-12T10:39:33.708Z,0.90
2023-04-12T10:40:33.709Z,0.70
2023-04-12T10:41:33.676Z,0.60
2023-04-12T10:42:33.688Z,0.80
2023-04-12T10:43:33.680Z,0.80
2023-04-12T10:44:33.718Z,0.70
2023-04-12T10:45:33.628Z,0.70
2023-04-12T10:46:33.661Z,0.60
2023-04-12T10:47:33.632Z,1.00
2023-04-12T10:48:33.677Z,0.70
2023-04-12T10:49:33.607Z,0.70
2023-04-12T10:50:33.615Z,0.60
2023-04-12T10:51:33.556Z,0.70
2023-04-12T10:52:33.560Z,0.70
2023-04-12T10:53:33.555Z,0.60
2023-04-12T10:54:33.544Z,0.60
2023-04-12T10:55:33.541Z,0.50
2023-04-12T10:56:33.570Z,0.60
2023-04-12T10:57:33.556Z,0.40
2023-04-12T10:58:33.534Z,0.40
2023-04-12T10:59:47.027Z,0.40
2023-04-12T11:00:34.548Z,0.30
2023-04-12T11:01:35.194Z,0.40
2023-04-12T11:02:33.640Z,0.30
2023-04-12T11:03:33.546Z,0.40
2023-04-12T11:04:33.530Z,0.40
2023-04-12T11:05:33.562Z,0.50
2023-04-12T11:06:33.406Z,0.60
2023-04-12T11:07:33.449Z,0.50
2023-04-12T11:08:33.468Z,0.50
2023-04-12T11:09:33.377Z,0.50
2023-04-12T11:10:33.610Z,0.50
2023-04-12T11:11:33.336Z,0.50
2023-04-12T11:12:33.549Z,0.60
2023-04-12T11:13:33.469Z,0.60
2023-04-12T11:14:33.326Z,0.70
2023-04-12T11:15:33.325Z,0.60
2023-04-12T11:16:33.354Z,0.70
2023-04-12T11:17:34.942Z,0.70
2023-04-12T11:18:33.361Z,0.70
2023-04-12T11:19:33.258Z,0.80
2023-04-12T11:20:33.245Z,0.70
2023-04-12T11:21:33.257Z,0.70
2023-04-12T11:22:33.303Z,0.90
2023-04-12T11:23:33.249Z,0.90
2023-04-12T11:24:33.195Z,0.80
2023-04-12T11:25:33.204Z,0.60
2023-04-12T11:26:33.176Z,1.00
2023-04-12T11:27:33.166Z,1.10
2023-04-12T11:28:35.271Z,1.20
2023-04-12T11:29:33.135Z,1.00
2023-04-12T11:30:33.120Z,1.20
2023-04-12T11:31:33.198Z,1.20
2023-04-12T11:32:33.149Z,1.30
2023-04-12T11:33:33.105Z,1.50
2023-04-12T11:34:33.086Z,1.70
2023-04-12T11:35:33.071Z,1.40
2023-04-12T11:36:33.063Z,1.30
2023-04-12T11:37:33.057Z,1.30
2023-04-12T11:38:33.056Z,1.30
2023-04-12T11:39:33.443Z,1.20
2023-04-12T11:40:33.118Z,1.30
2023-04-12T11:41:32.999Z,1.00
2023-04-12T11:42:33.010Z,1.20
2023-04-12T11:43:33.202Z,1.10
2023-04-12T11:44:47.940Z,1.40
2023-04-12T11:45:33.964Z,1.30
2023-04-12T11:46:33.014Z,1.40
2023-04-12T11:47:32.996Z,1.40
2023-04-12T11:48:32.931Z,1.70
2023-04-12T11:49:32.933Z,1.40
2023-04-12T11:50:32.923Z,1.50
2023-04-12T11:51:32.911Z,1.70
2023-04-12T11:52:32.902Z,1.40
2023-04-12T11:53:32.918Z,1.70
2023-04-12T11:54:32.861Z,1.30
2023-04-12T11:55:32.855Z,1.40
2023-04-12T11:56:32.890Z,1.50
2023-04-12T11:57:32.868Z,1.50
2023-04-12T11:58:32.822Z,1.50
2023-04-12T11:59:32.811Z,1.40
2023-04-12T12:00:32.795Z,1.50
2023-04-12T12:01:32.824Z,1.60
2023-04-12T12:02:38.372Z,1.50
2023-04-12T12:03:33.906Z,1.60
2023-04-12T12:04:33.130Z,1.80
2023-04-12T12:05:33.243Z,1.60
2023-04-12T12:06:32.872Z,1.80
2023-04-12T12:07:33.097Z,1.50
2023-04-12T12:08:32.787Z,1.70
2023-04-12T12:09:32.713Z,1.40
2023-04-12T12:10:46.430Z,1.80
2023-04-12T12:11:33.675Z,1.60
2023-04-12T12:12:32.663Z,1.80
2023-04-12T12:13:32.758Z,1.80
2023-04-12T12:14:32.649Z,1.60
2023-04-12T12:15:32.649Z,1.70
2023-04-12T12:16:32.695Z,1.90
2023-04-12T12:17:32.653Z,2.20
2023-04-12T12:18:32.610Z,2.00
2023-04-12T12:19:32.687Z,1.90
2023-04-12T12:20:32.593Z,1.90
2023-04-12T12:21:32.612Z,2.00
2023-04-12T12:22:32.556Z,1.70
2023-04-12T12:23:32.571Z,2.10
2023-04-12T12:24:32.538Z,1.80
2023-04-12T12:25:32.556Z,1.90
2023-04-12T12:26:32.510Z,1.90
2023-04-12T12:27:32.554Z,1.90
2023-04-12T12:28:32.523Z,2.10
2023-04-12T12:29:32.495Z,2.10
2023-04-12T12:30:32.466Z,1.90
2023-04-12T12:31:32.467Z,2.00
2023-04-12T12:32:32.510Z,1.70
2023-04-12T12:33:45.271Z,1.70
2023-04-12T12:34:33.466Z,1.70
2023-04-12T12:35:32.429Z,1.90
2023-04-12T12:36:32.903Z,2.00
2023-04-12T12:37:32.402Z,1.70
2023-04-12T12:38:32.818Z,2.00
2023-04-12T12:39:32.374Z,1.50
2023-04-12T12:40:32.555Z,1.90
2023-04-12T12:41:32.348Z,1.70
2023-04-12T12:42:32.335Z,2.20
2023-04-12T12:43:32.342Z,1.60
2023-04-12T12:44:32.338Z,1.70
2023-04-12T12:45:32.343Z,2.30
2023-04-12T12:46:50.804Z,1.50
2023-04-12T12:47:33.399Z,1.40
2023-04-12T12:48:32.388Z,1.70
2023-04-12T12:49:32.324Z,1.70
2023-04-12T12:50:32.337Z,1.80
2023-04-12T12:51:32.241Z,1.80
2023-04-12T12:52:32.242Z,1.80
2023-04-12T12:53:32.304Z,1.70
2023-04-12T12:54:41.085Z,1.60
2023-04-12T12:55:33.254Z,1.60
2023-04-12T12:56:32.204Z,1.50
2023-04-12T12:57:32.177Z,1.40
2023-04-12T12:58:32.178Z,1.30
2023-04-12T12:59:32.193Z,1.40
2023-04-12T13:00:32.138Z,1.50
2023-04-12T13:01:32.187Z,1.10
2023-04-12T13:02:32.325Z,1.20
2023-04-12T13:03:32.389Z,1.60
2023-04-12T13:04:32.197Z,1.40
2023-04-12T13:05:32.100Z,1.10
2023-04-12T13:06:32.108Z,1.20
2023-04-12T13:07:32.117Z,1.20
2023-04-12T13:08:32.108Z,1.30
2023-04-12T13:09:32.064Z,1.20
2023-04-12T13:10:32.043Z,1.20
2023-04-12T13:11:32.037Z,1.20
2023-04-12T13:12:32.044Z,1.20
2023-04-12T13:13:32.067Z,1.30
2023-04-12T13:14:32.028Z,1.00
2023-04-12T13:15:32.000Z,1.30
2023-04-12T13:16:32.022Z,1.20
2023-04-12T13:17:32.003Z,1.10
2023-04-12T13:18:31.960Z,1.00
2023-04-12T13:19:31.948Z,1.10